createdAt,value
2018-11-05T00:01:03.770Z,23.60
2018-11-05T00:03:32.064Z,21.80
2018-11-05T00:06:00.380Z,21.70
2018-11-05T00:08:28.681Z,19.73
2018-11-05T00:10:57.041Z,20.63
2018-11-05T00:13:25.333Z,20.00
2018-11-05T00:15:53.653Z,21.37
2018-11-05T00:18:21.945Z,20.33
2018-11-05T00:20:50.274Z,20.83
2018-11-05T00:23:18.569Z,20.03
2018-11-05T00:25:46.881Z,19.77
2018-11-05T00:28:15.181Z,20.00
2018-11-05T00:30:43.498Z,20.40
2018-11-05T00:33:11.790Z,19.17
2018-11-05T00:35:40.105Z,18.60
2018-11-05T00:38:08.400Z,21.03
2018-11-05T00:40:36.725Z,20.37
2018-11-05T00:43:05.880Z,19.03
2018-11-05T00:45:34.213Z,19.93
2018-11-05T00:48:02.513Z,21.67
2018-11-05T00:50:30.824Z,20.73
2018-11-05T00:52:59.120Z,20.53
2018-11-05T00:55:27.437Z,21.20
2018-11-05T00:57:55.728Z,20.73
2018-11-05T01:00:24.053Z,22.10
2018-11-05T01:02:52.354Z,21.50
2018-11-05T01:05:20.682Z,23.90
2018-11-05T01:07:48.976Z,22.97
2018-11-05T01:10:17.342Z,23.33
2018-11-05T01:12:45.629Z,22.37
2018-11-05T01:15:16.341Z,23.27
2018-11-05T01:17:44.640Z,23.83
2018-11-05T01:20:14.214Z,22.63
2018-11-05T01:22:42.504Z,24.23
2018-11-05T01:25:11.000Z,23.23
2018-11-05T01:27:39.296Z,22.43
2018-11-05T01:30:09.490Z,24.03
2018-11-05T01:32:37.933Z,23.10
2018-11-05T01:35:07.545Z,24.83
2018-11-05T01:37:35.861Z,22.17
2018-11-05T01:40:06.098Z,24.07
2018-11-05T01:42:34.402Z,23.33
2018-11-05T01:45:02.745Z,24.47
2018-11-05T01:47:31.050Z,25.20
2018-11-05T01:49:59.380Z,24.60
2018-11-05T01:52:27.671Z,24.50
2018-11-05T01:54:55.992Z,24.73
2018-11-05T01:57:24.326Z,25.17
2018-11-05T01:59:52.625Z,25.43
2018-11-05T02:02:20.960Z,24.10
2018-11-05T02:04:49.289Z,24.63
2018-11-05T02:07:18.316Z,24.30
2018-11-05T02:09:46.620Z,25.20
2018-11-05T02:12:14.948Z,25.13
2018-11-05T02:14:43.261Z,24.63
2018-11-05T02:17:11.577Z,24.17
2018-11-05T02:19:41.512Z,23.57
2018-11-05T02:22:09.908Z,23.63
2018-11-05T02:24:38.209Z,22.40
2018-11-05T02:27:06.604Z,23.03
2018-11-05T02:29:34.901Z,23.97
2018-11-05T02:32:03.216Z,23.37
2018-11-05T02:34:31.589Z,23.97
2018-11-05T02:36:59.917Z,23.77
2018-11-05T02:39:28.214Z,24.07
2018-11-05T02:41:56.530Z,22.23
2018-11-05T02:44:24.853Z,23.43
2018-11-05T02:46:53.187Z,23.23
2018-11-05T02:49:21.491Z,22.87
2018-11-05T02:51:49.820Z,23.20
2018-11-05T02:54:18.126Z,23.73
2018-11-05T02:56:46.443Z,24.33
2018-11-05T02:59:14.741Z,23.97
2018-11-05T03:01:43.069Z,22.40
2018-11-05T03:04:11.364Z,23.33
2018-11-05T03:06:39.689Z,23.37
2018-11-05T03:09:10.109Z,24.63
2018-11-05T03:11:38.705Z,24.50
2018-11-05T03:14:07.274Z,24.20
2018-11-05T03:16:35.873Z,24.93
2018-11-05T03:19:04.473Z,24.37
2018-11-05T03:21:33.148Z,25.20
2018-11-05T03:24:01.458Z,23.77
2018-11-05T03:26:29.817Z,25.30
2018-11-05T03:28:58.132Z,25.17
2018-11-05T03:31:26.481Z,24.67
2018-11-05T03:33:54.772Z,25.00
2018-11-05T03:36:23.314Z,25.33
2018-11-05T03:38:51.621Z,25.83
2018-11-05T03:41:19.954Z,25.97
2018-11-05T03:43:48.250Z,26.30
2018-11-05T03:46:16.581Z,25.30
2018-11-05T03:48:44.885Z,26.27
2018-11-05T03:51:13.209Z,25.47
2018-11-05T03:53:41.533Z,24.90
2018-11-05T03:56:09.863Z,25.87
2018-11-05T03:58:38.169Z,25.50
2018-11-05T04:01:06.479Z,26.73
2018-11-05T04:03:34.877Z,27.53
2018-11-05T04:06:03.124Z,25.87
2018-11-05T04:08:31.456Z,25.47
2018-11-05T04:10:59.765Z,26.23
2018-11-05T04:13:28.096Z,25.93
2018-11-05T04:15:56.478Z,26.07
2018-11-05T04:18:24.734Z,26.97
2018-11-05T04:20:53.046Z,27.67
2018-11-05T04:23:21.370Z,27.77
2018-11-05T04:25:49.676Z,27.67
2018-11-05T04:28:18.066Z,26.87
2018-11-05T04:30:46.372Z,28.13
2018-11-05T04:33:14.702Z,28.63
2018-11-05T04:35:43.034Z,28.17
2018-11-05T04:38:11.381Z,28.67
2018-11-05T04:40:39.800Z,26.83
2018-11-05T04:43:09.241Z,27.27
2018-11-05T04:45:37.555Z,27.63
2018-11-05T04:48:05.876Z,27.27
2018-11-05T04:50:34.197Z,26.13
2018-11-05T04:53:02.554Z,27.73
2018-11-05T04:55:30.873Z,26.67
2018-11-05T04:57:59.193Z,27.47
2018-11-05T05:00:27.510Z,27.80
2018-11-05T05:02:55.836Z,26.97
2018-11-05T05:05:24.149Z,27.13
2018-11-05T05:07:52.487Z,26.30
2018-11-05T05:10:20.789Z,28.03
2018-11-05T05:12:49.116Z,26.27
2018-11-05T05:15:17.425Z,28.23
2018-11-05T05:17:45.741Z,26.30
2018-11-05T05:20:15.163Z,28.10
2018-11-05T05:22:43.727Z,26.20
2018-11-05T05:25:11.953Z,27.23
2018-11-05T05:27:40.453Z,27.20
2018-11-05T05:30:10.960Z,26.20
2018-11-05T05:32:39.286Z,26.03
2018-11-05T05:35:07.635Z,26.40
2018-11-05T05:37:35.962Z,26.90
2018-11-05T05:40:04.590Z,26.30
2018-11-05T05:42:32.926Z,28.00
2018-11-05T05:45:01.236Z,27.77
2018-11-05T05:47:29.554Z,25.97
2018-11-05T05:49:57.887Z,26.80
2018-11-05T05:52:26.209Z,24.57
2018-11-05T05:54:54.536Z,24.73
2018-11-05T05:57:22.844Z,23.70
2018-11-05T05:59:51.214Z,23.13
2018-11-05T06:02:19.518Z,24.73
2018-11-05T06:04:47.849Z,24.47
2018-11-05T06:07:16.177Z,24.93
2018-11-05T06:09:44.517Z,25.20
2018-11-05T06:12:12.858Z,25.67
2018-11-05T06:14:41.180Z,25.83
2018-11-05T06:17:09.516Z,24.97
2018-11-05T06:19:37.862Z,24.83
2018-11-05T06:22:06.664Z,24.13
2018-11-05T06:24:34.993Z,23.77
2018-11-05T06:27:03.336Z,24.47
2018-11-05T06:29:31.691Z,23.23
2018-11-05T06:32:00.000Z,25.17
2018-11-05T06:34:28.346Z,24.83
2018-11-05T06:36:56.669Z,23.40
2018-11-05T06:39:25.025Z,23.83
2018-11-05T06:41:53.395Z,24.40
2018-11-05T06:44:21.718Z,21.97
2018-11-05T06:46:50.033Z,23.60
2018-11-05T06:49:18.351Z,23.07
2018-11-05T06:51:46.668Z,23.37
2018-11-05T06:54:15.010Z,21.00
2018-11-05T06:56:43.361Z,22.23
2018-11-05T06:59:11.689Z,22.80
2018-11-05T07:01:39.997Z,23.13
2018-11-05T07:04:08.325Z,22.43
2018-11-05T07:06:36.632Z,23.33
2018-11-05T07:09:08.669Z,22.33
2018-11-05T07:11:37.217Z,22.50
2018-11-05T07:14:05.820Z,21.33
2018-11-05T07:16:34.120Z,21.80
2018-11-05T07:19:02.761Z,21.47
2018-11-05T07:21:30.798Z,22.63
2018-11-05T07:23:59.138Z,23.70
2018-11-05T07:26:27.517Z,21.67
2018-11-05T07:28:55.818Z,21.27
2018-11-05T07:31:24.159Z,25.13
2018-11-05T07:33:52.740Z,26.20
2018-11-05T07:36:20.822Z,22.53
2018-11-05T07:38:49.149Z,20.47
2018-11-05T07:41:17.476Z,21.50
2018-11-05T07:43:45.809Z,20.63
2018-11-05T07:46:14.139Z,19.80
2018-11-05T07:48:42.473Z,21.40
2018-11-05T07:51:10.785Z,20.57
2018-11-05T07:53:39.096Z,20.33
2018-11-05T07:56:07.445Z,19.70
2018-11-05T07:58:35.772Z,19.97
2018-11-05T08:01:04.405Z,21.93
2018-11-05T08:03:32.705Z,20.37
2018-11-05T08:06:01.032Z,20.13
2018-11-05T08:08:29.479Z,21.47
2018-11-05T08:10:57.705Z,20.23
2018-11-05T08:13:26.018Z,21.23
2018-11-05T08:15:54.341Z,19.30
2018-11-05T08:18:22.657Z,20.63
2018-11-05T08:20:51.877Z,19.93
2018-11-05T08:23:20.188Z,21.97
2018-11-05T08:25:48.551Z,20.13
2018-11-05T08:28:16.865Z,19.83
2018-11-05T08:30:45.196Z,20.83
2018-11-05T08:33:13.533Z,21.67
2018-11-05T08:35:41.880Z,20.73
2018-11-05T08:38:10.197Z,20.23
2018-11-05T08:40:38.530Z,19.33
2018-11-05T08:43:06.857Z,24.47
2018-11-05T08:45:35.185Z,20.03
2018-11-05T08:48:03.489Z,20.83
2018-11-05T08:50:31.960Z,20.47
2018-11-05T08:53:00.179Z,21.00
2018-11-05T08:55:28.524Z,20.43
2018-11-05T08:57:56.842Z,22.37
2018-11-05T09:00:30.601Z,19.50
2018-11-05T09:02:58.909Z,21.43
2018-11-05T09:05:27.246Z,21.57
2018-11-05T09:07:56.099Z,19.87
2018-11-05T09:10:24.562Z,20.00
2018-11-05T09:12:52.765Z,21.57
2018-11-05T09:15:22.001Z,20.77
2018-11-05T09:17:50.433Z,19.17
2018-11-05T09:20:19.480Z,19.97
2018-11-05T09:22:48.512Z,21.63
2018-11-05T09:25:17.329Z,19.83
2018-11-05T09:27:45.691Z,18.07
2018-11-05T09:30:15.877Z,18.60
2018-11-05T09:32:45.005Z,20.27
2018-11-05T09:35:13.337Z,20.17
2018-11-05T09:37:41.636Z,19.80
2018-11-05T09:40:12.612Z,19.00
2018-11-05T09:42:41.745Z,20.10
2018-11-05T09:45:13.162Z,22.10
2018-11-05T09:47:41.830Z,20.63
2018-11-05T09:50:10.627Z,20.10
2018-11-05T09:52:39.126Z,19.17
2018-11-05T09:55:08.097Z,18.23
2018-11-05T09:57:36.413Z,19.53
2018-11-05T10:00:06.008Z,18.40
2018-11-05T10:02:39.594Z,19.70
2018-11-05T10:05:08.389Z,18.97
2018-11-05T10:07:36.533Z,19.40
2018-11-05T10:10:05.924Z,18.60
2018-11-05T10:12:34.221Z,18.83
2018-11-05T10:15:02.554Z,17.70
2018-11-05T10:17:30.866Z,19.17
2018-11-05T10:19:59.189Z,17.80
2018-11-05T10:22:27.521Z,19.37
2018-11-05T10:24:56.392Z,18.50
2018-11-05T10:27:24.616Z,18.30
2018-11-05T10:29:52.949Z,17.67
2018-11-05T10:32:21.298Z,17.60
2018-11-05T10:34:49.612Z,17.67
2018-11-05T10:37:17.948Z,17.07
2018-11-05T10:39:46.258Z,17.43
2018-11-05T10:42:14.846Z,17.90
2018-11-05T10:44:43.157Z,18.10
2018-11-05T10:47:11.494Z,18.60
2018-11-05T10:49:39.815Z,18.70
2018-11-05T10:52:08.349Z,17.60
2018-11-05T10:54:36.554Z,18.63
2018-11-05T10:57:05.270Z,18.07
2018-11-05T10:59:33.593Z,18.07
2018-11-05T11:02:07.367Z,19.00
2018-11-05T11:04:35.989Z,18.70
2018-11-05T11:07:04.897Z,17.53
2018-11-05T11:09:33.250Z,16.27
2018-11-05T11:12:01.550Z,16.63
2018-11-05T11:14:30.329Z,17.43
2018-11-05T11:16:58.652Z,17.47
2018-11-05T11:19:27.005Z,16.70
2018-11-05T11:21:55.350Z,17.40
2018-11-05T11:24:23.647Z,16.90
2018-11-05T11:26:51.977Z,18.00
2018-11-05T11:29:20.441Z,17.60
2018-11-05T11:31:48.644Z,17.67
2018-11-05T11:34:16.958Z,16.33
2018-11-05T11:36:45.373Z,16.53
2018-11-05T11:39:13.623Z,16.77
2018-11-05T11:41:42.193Z,15.83
2018-11-05T11:44:10.563Z,16.53
2018-11-05T11:46:38.851Z,16.40
2018-11-05T11:49:08.437Z,16.43
2018-11-05T11:51:36.929Z,15.47
2018-11-05T11:54:05.621Z,12.50
2018-11-05T11:56:33.957Z,11.57
2018-11-05T11:59:02.314Z,8.70
2018-11-05T12:01:32.955Z,11.70
2018-11-05T12:04:01.281Z,13.87
2018-11-05T12:06:29.589Z,14.27
2018-11-05T12:08:57.916Z,11.20
2018-11-05T12:11:26.229Z,15.27
2018-11-05T12:13:54.610Z,16.70
2018-11-05T12:16:22.900Z,16.83
2018-11-05T12:18:51.280Z,17.03
2018-11-05T12:21:19.600Z,17.47
2018-11-05T12:23:47.924Z,18.50
2018-11-05T12:26:16.259Z,16.37
2018-11-05T12:28:44.616Z,16.47
2018-11-05T12:31:12.993Z,16.53
2018-11-05T12:33:41.321Z,16.60
2018-11-05T12:36:09.627Z,16.07
2018-11-05T12:38:37.995Z,16.33
2018-11-05T12:41:06.334Z,16.70
2018-11-05T12:43:34.663Z,15.07
2018-11-05T12:46:02.979Z,15.83
2018-11-05T12:48:31.300Z,15.67
2018-11-05T12:50:59.605Z,14.90
2018-11-05T12:53:27.945Z,15.33
2018-11-05T12:55:56.253Z,14.93
2018-11-05T12:58:24.582Z,13.83
2018-11-05T13:00:52.901Z,14.73
2018-11-05T13:03:21.262Z,15.17
2018-11-05T13:05:49.570Z,15.30
2018-11-05T13:08:17.895Z,14.97
2018-11-05T13:10:46.241Z,13.93
2018-11-05T13:13:14.566Z,14.83
2018-11-05T13:15:42.912Z,14.17
2018-11-05T13:18:11.241Z,14.93
2018-11-05T13:20:39.570Z,14.57
2018-11-05T13:23:07.900Z,14.43
2018-11-05T13:25:36.205Z,14.10
2018-11-05T13:28:04.540Z,14.33
2018-11-05T13:30:32.854Z,13.40
2018-11-05T13:33:01.177Z,13.80
2018-11-05T13:35:29.517Z,13.53
2018-11-05T13:37:58.218Z,13.43
2018-11-05T13:40:26.217Z,13.30
2018-11-05T13:42:54.546Z,13.67
2018-11-05T13:45:22.926Z,13.07
2018-11-05T13:47:52.244Z,13.87
2018-11-05T13:50:19.941Z,11.97
2018-11-05T13:52:47.889Z,14.00
2018-11-05T13:55:16.964Z,13.03
2018-11-05T13:57:46.384Z,13.53
2018-11-05T14:00:15.980Z,12.77
2018-11-05T14:02:44.309Z,12.93
2018-11-05T14:05:13.037Z,13.40
2018-11-05T14:07:41.399Z,13.50
2018-11-05T14:10:13.180Z,13.20
2018-11-05T14:12:42.224Z,11.77
2018-11-05T14:15:10.523Z,13.73
2018-11-05T14:17:39.214Z,13.17
2018-11-05T14:20:08.636Z,12.10
2018-11-05T14:22:36.989Z,13.47
2018-11-05T14:25:06.248Z,13.10
2018-11-05T14:27:34.690Z,13.73
2018-11-05T14:30:03.210Z,13.23
2018-11-05T14:32:31.289Z,13.03
2018-11-05T14:34:59.625Z,12.97
2018-11-05T14:37:27.941Z,13.87
2018-11-05T14:39:56.284Z,14.27
2018-11-05T14:42:24.619Z,14.50
2018-11-05T14:44:52.957Z,14.47
2018-11-05T14:47:21.282Z,14.30
2018-11-05T14:49:49.629Z,14.17
2018-11-05T14:52:17.948Z,15.80
2018-11-05T14:54:46.277Z,15.50
2018-11-05T14:57:14.660Z,16.10
2018-11-05T14:59:43.078Z,15.33
2018-11-05T15:02:16.731Z,16.00
2018-11-05T15:04:45.067Z,15.33
2018-11-05T15:07:13.457Z,16.33
2018-11-05T15:09:41.939Z,17.57
2018-11-05T15:12:10.302Z,16.47
2018-11-05T15:14:38.793Z,17.77
2018-11-05T15:17:07.660Z,19.10
2018-11-05T15:19:36.367Z,18.27
2018-11-05T15:22:04.364Z,18.17
2018-11-05T15:24:32.688Z,18.60
2018-11-05T15:27:01.061Z,19.13
2018-11-05T15:29:29.345Z,17.63
2018-11-05T15:31:57.661Z,17.60
2018-11-05T15:34:32.751Z,19.30
2018-11-05T15:37:01.075Z,17.27
2018-11-05T15:39:29.428Z,17.23
2018-11-05T15:41:57.778Z,18.37
2018-11-05T15:44:26.101Z,18.47
2018-11-05T15:46:54.408Z,20.17
2018-11-05T15:49:22.736Z,19.60
2018-11-05T15:51:51.374Z,20.93
2018-11-05T15:54:19.576Z,19.67
2018-11-05T15:56:47.736Z,19.87
2018-11-05T15:59:16.082Z,19.90
2018-11-05T16:01:44.397Z,19.17
2018-11-05T16:04:12.765Z,19.73
2018-11-05T16:06:41.042Z,19.17
2018-11-05T16:09:09.815Z,20.00
2018-11-05T16:11:38.141Z,18.40
2018-11-05T16:14:06.717Z,18.30
2018-11-05T16:16:35.309Z,19.40
2018-11-05T16:19:03.642Z,21.73
2018-11-05T16:21:32.169Z,20.53
2018-11-05T16:24:00.485Z,19.47
2018-11-05T16:26:28.833Z,19.50
2018-11-05T16:28:57.141Z,20.13
2018-11-05T16:31:25.493Z,20.90
2018-11-05T16:33:53.833Z,19.53
2018-11-05T16:36:22.160Z,22.10
2018-11-05T16:38:50.460Z,22.03
2018-11-05T16:41:18.801Z,22.13
2018-11-05T16:43:47.229Z,22.47
2018-11-05T16:46:15.553Z,21.17
2018-11-05T16:48:43.864Z,22.40
2018-11-05T16:51:12.812Z,22.60
2018-11-05T16:53:41.141Z,23.33
2018-11-05T16:56:09.450Z,23.03
2018-11-05T16:58:37.924Z,23.03
2018-11-05T17:01:06.699Z,22.03
2018-11-05T17:03:34.859Z,22.17
2018-11-05T17:06:03.187Z,22.60
2018-11-05T17:08:31.501Z,22.70
2018-11-05T17:10:59.977Z,21.60
2018-11-05T17:13:28.459Z,22.10
2018-11-05T17:15:56.620Z,23.00
2018-11-05T17:18:24.929Z,22.50
2018-11-05T17:20:53.286Z,24.43
2018-11-05T17:23:21.605Z,24.20
2018-11-05T17:25:49.920Z,25.47
2018-11-05T17:28:18.222Z,25.80
2018-11-05T17:30:46.608Z,25.53
2018-11-05T17:33:14.909Z,25.67
2018-11-05T17:35:43.245Z,24.87
2018-11-05T17:38:11.548Z,24.90
2018-11-05T17:40:39.933Z,25.17
2018-11-05T17:43:08.236Z,23.03
2018-11-05T17:45:36.573Z,24.87
2018-11-05T17:48:04.975Z,28.27
2018-11-05T17:50:33.353Z,31.23
2018-11-05T17:53:01.642Z,28.10
2018-11-05T17:55:29.974Z,24.83
2018-11-05T17:57:58.291Z,24.53
2018-11-05T18:00:26.656Z,24.97
2018-11-05T18:02:54.964Z,27.57
2018-11-05T18:05:23.289Z,27.33
2018-11-05T18:07:51.817Z,24.63
2018-11-05T18:10:20.173Z,25.03
2018-11-05T18:12:48.479Z,26.50
2018-11-05T18:15:16.864Z,29.17
2018-11-05T18:17:46.137Z,32.57
2018-11-05T18:20:15.359Z,33.33
2018-11-05T18:22:43.687Z,29.50
2018-11-05T18:25:14.592Z,29.57
2018-11-05T18:27:43.125Z,29.70
2018-11-05T18:30:12.344Z,28.07
2018-11-05T18:32:40.659Z,27.70
2018-11-05T18:35:10.390Z,28.13
2018-11-05T18:37:38.714Z,26.37
2018-11-05T18:40:09.576Z,28.07
2018-11-05T18:42:38.209Z,27.20
2018-11-05T18:45:07.488Z,26.00
2018-11-05T18:47:35.988Z,26.13
2018-11-05T18:50:05.943Z,25.33
2018-11-05T18:52:34.285Z,26.07
2018-11-05T18:55:02.590Z,25.77
2018-11-05T18:57:30.945Z,30.80
2018-11-05T18:59:59.270Z,32.57
2018-11-05T19:02:33.286Z,35.83
2018-11-05T19:05:01.897Z,34.80
2018-11-05T19:07:30.269Z,33.17
2018-11-05T19:09:58.602Z,32.47
2018-11-05T19:12:27.022Z,30.63
2018-11-05T19:14:55.359Z,29.77
2018-11-05T19:17:23.681Z,33.63
2018-11-05T19:19:51.986Z,33.70
2018-11-05T19:22:20.521Z,31.90
2018-11-05T19:24:48.739Z,35.30
2018-11-05T19:27:17.105Z,30.83
2018-11-05T19:29:45.405Z,29.67
2018-11-05T19:32:13.857Z,29.37
2018-11-05T19:34:42.157Z,30.17
2018-11-05T19:37:10.503Z,32.20
2018-11-05T19:39:38.813Z,33.67
2018-11-05T19:42:07.334Z,34.63
2018-11-05T19:44:35.499Z,33.10
2018-11-05T19:47:03.829Z,29.03
2018-11-05T19:49:32.136Z,29.50
2018-11-05T19:52:00.477Z,29.63
2018-11-05T19:54:28.796Z,28.97
2018-11-05T19:56:57.136Z,29.27
2018-11-05T19:59:25.437Z,28.50
2018-11-05T20:01:53.776Z,28.17
2018-11-05T20:04:22.189Z,25.67
2018-11-05T20:06:50.574Z,25.53
2018-11-05T20:09:18.901Z,26.40
2018-11-05T20:11:47.352Z,27.37
2018-11-05T20:14:15.765Z,23.23
2018-11-05T20:16:44.091Z,25.40
2018-11-05T20:19:12.532Z,27.23
2018-11-05T20:21:40.770Z,25.60
2018-11-05T20:24:09.106Z,25.03
2018-11-05T20:26:37.427Z,26.10
2018-11-05T20:29:05.812Z,26.07
2018-11-05T20:31:34.533Z,26.83
2018-11-05T20:34:03.100Z,26.63
2018-11-05T20:36:31.001Z,25.80
2018-11-05T20:38:59.458Z,25.13
2018-11-05T20:41:27.842Z,23.60
2018-11-05T20:43:56.219Z,28.53
2018-11-05T20:46:24.622Z,26.67
2018-11-05T20:48:52.944Z,24.10
2018-11-05T20:51:21.318Z,25.73
2018-11-05T20:53:49.717Z,26.33
2018-11-05T20:56:17.985Z,27.10
2018-11-05T20:58:46.385Z,25.33
2018-11-05T21:01:14.718Z,24.37
2018-11-05T21:03:43.089Z,25.67
2018-11-05T21:06:11.394Z,26.17
2018-11-05T21:08:39.724Z,24.27
2018-11-05T21:11:08.021Z,26.00
2018-11-05T21:13:36.352Z,24.93
2018-11-05T21:16:04.708Z,24.37
2018-11-05T21:18:33.045Z,24.43
2018-11-05T21:21:01.431Z,29.20
2018-11-05T21:23:29.709Z,28.97
2018-11-05T21:25:58.011Z,34.73
2018-11-05T21:28:26.349Z,31.83
2018-11-05T21:30:54.689Z,31.33
2018-11-05T21:33:23.035Z,28.63
2018-11-05T21:35:51.345Z,27.67
2018-11-05T21:38:19.660Z,25.30
2018-11-05T21:40:48.066Z,26.40
2018-11-05T21:43:16.368Z,28.57
2018-11-05T21:45:44.714Z,27.67
2018-11-05T21:48:13.065Z,27.90
2018-11-05T21:50:41.472Z,29.87
2018-11-05T21:53:09.789Z,28.23
2018-11-05T21:55:38.095Z,28.47
2018-11-05T21:58:06.440Z,27.80
2018-11-05T22:00:34.763Z,26.57
2018-11-05T22:03:04.436Z,26.47
2018-11-05T22:05:32.778Z,27.50
2018-11-05T22:08:01.108Z,25.87
2018-11-05T22:10:29.532Z,24.53
2018-11-05T22:12:57.853Z,26.87
2018-11-05T22:15:30.377Z,26.27
2018-11-05T22:17:58.869Z,25.73
2018-11-05T22:20:27.192Z,27.43
2018-11-05T22:22:55.501Z,29.63
2018-11-05T22:25:23.854Z,27.23
2018-11-05T22:27:52.162Z,27.60
2018-11-05T22:30:20.506Z,28.50
2018-11-05T22:32:48.832Z,26.43
2018-11-05T22:35:17.415Z,25.20
2018-11-05T22:37:45.724Z,23.77
2018-11-05T22:40:14.825Z,23.17
2018-11-05T22:42:43.135Z,24.17
2018-11-05T22:45:13.012Z,25.57
2018-11-05T22:47:41.690Z,26.87
2018-11-05T22:50:10.119Z,24.77
2018-11-05T22:52:38.863Z,22.70
2018-11-05T22:55:07.447Z,25.83
2018-11-05T22:57:36.009Z,24.93
2018-11-05T23:00:06.933Z,24.00
2018-11-05T23:02:35.270Z,26.30
2018-11-05T23:05:03.612Z,26.07
2018-11-05T23:07:31.920Z,22.57
2018-11-05T23:10:00.240Z,26.27
2018-11-05T23:12:28.541Z,23.77
2018-11-05T23:14:56.859Z,24.20
2018-11-05T23:17:25.160Z,25.27
2018-11-05T23:19:53.512Z,22.63
2018-11-05T23:22:21.824Z,21.40
2018-11-05T23:24:50.148Z,22.20
2018-11-05T23:27:18.449Z,21.93
2018-11-05T23:29:46.772Z,23.40
2018-11-05T23:32:15.068Z,23.03
2018-11-05T23:34:43.401Z,22.97
2018-11-05T23:37:11.704Z,21.43
2018-11-05T23:39:40.025Z,22.00
2018-11-05T23:42:08.325Z,21.27
2018-11-05T23:44:36.676Z,22.77
2018-11-05T23:47:05.013Z,21.93
2018-11-05T23:49:33.505Z,22.83
2018-11-05T23:52:01.867Z,23.20
2018-11-05T23:54:30.161Z,22.33
2018-11-05T23:56:58.464Z,20.63
2018-11-05T23:59:26.784Z,21.40
